Time;durP1;ratioP1;P1;durP2;ratioP2;P2;SDS_P1;SDS_P2;PMS_P1;PMS_P2;Temp;Humidity;BMP_temperature;BMP_pressure;BME280_temperature;BME280_humidity;BME280_pressure;Samples;Min_cycle;Max_cycle;Signal;HPM_P1;HPM_P2
2021/04/15 00:00:44;;;;;;;7.20;5.40;;;4.80;65.50;;;;;;5101878;28;27418;-56
2021/04/15 00:03:51;;;;;;;8.18;6.05;;;4.80;65.50;;;;;;5105196;28;27426;-56
2021/04/15 00:07:18;;;;;;;8.27;5.57;;;4.80;65.50;;;;;;5101869;28;27391;-57
2021/04/15 00:10:34;;;;;;;8.07;5.53;;;4.70;65.40;;;;;;5102064;28;28003;-56
2021/04/15 00:13:49;;;;;;;7.97;5.65;;;4.70;65.30;;;;;;5105267;28;27437;-56
2021/04/15 00:17:00;;;;;;;6.25;4.95;;;4.70;65.40;;;;;;5101674;28;27311;-57
2021/04/15 00:20:26;;;;;;;9.27;5.45;;;4.70;65.50;;;;;;5103054;28;27478;-58
2021/04/15 00:23:57;;;;;;;7.85;5.40;;;4.70;65.60;;;;;;5104771;28;27486;-57
2021/04/15 00:26:44;;;;;;;7.35;5.18;;;4.70;65.80;;;;;;5104148;28;27474;-56
2021/04/15 00:29:50;;;;;;;8.75;5.30;;;4.70;65.70;;;;;;5104137;28;27438;-57
2021/04/15 00:32:57;;;;;;;6.55;5.10;;;4.70;65.90;;;;;;5104562;28;27419;-57
2021/04/15 00:36:09;;;;;;;8.57;4.95;;;4.70;65.90;;;;;;5104861;28;27394;-57
2021/04/15 00:39:37;;;;;;;8.75;5.10;;;4.60;65.90;;;;;;5104159;28;27465;-56
2021/04/15 00:42:50;;;;;;;6.97;6.05;;;4.60;66.10;;;;;;5101446;28;27455;-55
2021/04/15 00:46:17;;;;;;;8.90;5.43;;;4.50;65.90;;;;;;5101223;28;27396;-57
2021/04/15 00:49:52;;;;;;;7.80;5.40;;;4.50;66.10;;;;;;5102567;28;27882;-57
2021/04/15 00:53:03;;;;;;;6.47;5.45;;;4.40;66.00;;;;;;5103822;28;27419;-60
2021/04/15 00:56:30;;;;;;;8.10;4.65;;;4.40;65.90;;;;;;5103410;28;27501;-56
2021/04/15 00:59:57;;;;;;;9.82;5.32;;;4.30;65.90;;;;;;5103376;28;27478;-56
2021/04/15 01:03:08;;;;;;;7.13;5.55;;;4.30;66.10;;;;;;5104509;28;27406;-57
2021/04/15 01:06:36;;;;;;;8.20;5.13;;;4.30;65.90;;;;;;5103860;28;27461;-54
2021/04/15 01:10:33;;;;;;;7.00;4.60;;;4.30;65.90;;;;;;5100861;28;27583;-58
2021/04/15 01:14:25;;;;;;;7.15;5.13;;;4.20;65.80;;;;;;5101360;28;27435;-56
2021/04/15 01:17:56;;;;;;;8.68;5.90;;;4.20;65.70;;;;;;5099644;28;27849;-57
2021/04/15 01:21:22;;;;;;;6.15;5.53;;;4.20;65.70;;;;;;5103116;28;27319;-55
2021/04/15 01:24:21;;;;;;;7.28;5.00;;;4.20;65.70;;;;;;5104182;28;27512;-55
2021/04/15 01:27:28;;;;;;;8.15;5.10;;;4.10;65.40;;;;;;5103851;28;27384;-55
2021/04/15 01:30:41;;;;;;;9.18;5.80;;;4.10;65.40;;;;;;5103780;28;27400;-57
2021/04/15 01:33:56;;;;;;;11.80;5.97;;;4.10;65.30;;;;;;5103181;28;27534;-56
2021/04/15 01:37:18;;;;;;;12.52;5.63;;;4.00;65.20;;;;;;5103561;28;27403;-55
2021/04/15 01:41:00;;;;;;;11.43;6.45;;;4.00;65.10;;;;;;5103728;28;27328;-54
2021/04/15 01:44:09;;;;;;;9.05;5.97;;;4.00;65.20;;;;;;5101516;28;27393;-54
2021/04/15 01:47:23;;;;;;;7.70;5.75;;;4.00;65.20;;;;;;5102954;28;27422;-57
2021/04/15 01:50:57;;;;;;;7.63;5.90;;;3.90;65.20;;;;;;5102221;28;27054;-55
2021/04/15 01:54:18;;;;;;;7.22;5.55;;;3.90;65.20;;;;;;5099713;27;27341;-55
2021/04/15 01:57:46;;;;;;;6.95;5.78;;;3.80;65.10;;;;;;5099967;28;27859;-56
2021/04/15 02:00:56;;;;;;;6.78;5.50;;;3.80;65.20;;;;;;5102842;28;27443;-58
2021/04/15 02:04:04;;;;;;;8.20;5.57;;;3.70;65.20;;;;;;5103216;28;27485;-56
2021/04/15 02:07:14;;;;;;;12.32;6.28;;;3.70;65.30;;;;;;5103099;28;27398;-55
2021/04/15 02:10:20;;;;;;;7.55;5.72;;;3.60;65.20;;;;;;5101071;28;27494;-57
2021/04/15 02:13:23;;;;;;;8.20;6.35;;;3.60;65.20;;;;;;5087880;28;27457;-58
2021/04/15 02:16:29;;;;;;;8.48;6.25;;;3.60;65.10;;;;;;5099185;28;27433;-54
2021/04/15 02:19:23;;;;;;;9.75;6.20;;;3.60;65.20;;;;;;5101846;28;27170;-52
2021/04/15 02:22:30;;;;;;;9.68;6.47;;;3.50;65.00;;;;;;5102999;28;27423;-56
2021/04/15 02:26:08;;;;;;;8.05;5.97;;;3.50;65.00;;;;;;5103360;28;27327;-55
2021/04/15 02:29:38;;;;;;;9.02;6.22;;;3.50;65.00;;;;;;5101843;28;26995;-55
2021/04/15 02:33:06;;;;;;;7.85;5.88;;;3.40;65.10;;;;;;5103241;28;27474;-58
2021/04/15 02:36:36;;;;;;;8.73;6.15;;;3.40;65.10;;;;;;5103156;28;27423;-54
2021/04/15 02:40:26;;;;;;;8.30;6.57;;;3.30;65.10;;;;;;5099563;28;27382;-55
2021/04/15 02:43:37;;;;;;;10.93;6.88;;;3.30;65.10;;;;;;5102484;28;27439;-54
2021/04/15 02:47:43;;;;;;;12.77;8.23;;;3.30;65.10;;;;;;5099262;28;27336;-53
2021/04/15 02:51:34;;;;;;;12.80;8.13;;;3.30;65.00;;;;;;5099413;28;27340;-56
2021/04/15 02:54:36;;;;;;;9.23;7.10;;;3.20;65.00;;;;;;5101289;28;27399;-55
2021/04/15 02:57:47;;;;;;;9.77;7.07;;;3.20;65.10;;;;;;5084111;28;26857;-55
2021/04/15 03:01:04;;;;;;;10.88;7.05;;;3.10;65.10;;;;;;5102116;28;27346;-55
2021/04/15 03:04:12;;;;;;;11.95;6.95;;;3.10;65.20;;;;;;5102238;27;27474;-55
2021/04/15 03:07:10;;;;;;;10.45;6.93;;;3.00;65.20;;;;;;5089890;28;27355;-56
2021/04/15 03:10:17;;;;;;;9.10;6.75;;;3.00;65.40;;;;;;5105554;28;27354;-54
2021/04/15 03:13:07;;;;;;;10.65;7.53;;;3.00;65.40;;;;;;5105122;28;27441;-55
2021/04/15 03:16:26;;;;;;;9.18;6.88;;;3.00;65.40;;;;;;5102106;28;27435;-55
2021/04/15 03:19:36;;;;;;;10.57;7.45;;;3.00;65.50;;;;;;5103995;28;27531;-54
2021/04/15 03:22:23;;;;;;;10.32;7.65;;;2.90;65.30;;;;;;5105351;28;27398;-54
2021/04/15 03:25:51;;;;;;;12.27;7.97;;;2.90;65.30;;;;;;5106148;28;27331;-55
2021/04/15 03:29:29;;;;;;;11.77;7.50;;;2.90;65.10;;;;;;5102217;28;27390;-55
2021/04/15 03:32:39;;;;;;;10.52;7.53;;;2.90;65.80;;;;;;5102661;28;27409;-55
2021/04/15 03:36:06;;;;;;;10.65;7.22;;;2.90;65.10;;;;;;5105928;28;27390;-54
2021/04/15 03:38:56;;;;;;;12.02;7.80;;;2.90;65.10;;;;;;5105727;28;27379;-55
2021/04/15 03:41:44;;;;;;;12.35;7.80;;;2.80;65.00;;;;;;5104710;28;27523;-55
2021/04/15 03:44:57;;;;;;;10.35;7.88;;;2.80;65.00;;;;;;5105537;28;27432;-55
2021/04/15 03:48:07;;;;;;;11.80;8.10;;;2.80;65.00;;;;;;5105588;28;27444;-56
2021/04/15 03:51:36;;;;;;;11.70;7.88;;;2.80;65.00;;;;;;5105510;28;27383;-54
2021/04/15 03:54:44;;;;;;;10.80;8.05;;;2.70;65.00;;;;;;5104808;28;27450;-55
2021/04/15 03:57:50;;;;;;;11.75;8.02;;;2.70;65.00;;;;;;5103283;28;27394;-54
2021/04/15 04:01:03;;;;;;;13.23;8.43;;;2.70;65.00;;;;;;5104267;28;27692;-54
2021/04/15 04:04:29;;;;;;;12.48;8.27;;;2.70;65.00;;;;;;5104883;28;27674;-53
2021/04/15 04:07:48;;;;;;;10.80;7.32;;;2.70;65.00;;;;;;5101301;28;27357;-53
2021/04/15 04:10:46;;;;;;;12.10;7.95;;;2.70;65.00;;;;;;5105052;28;27490;-55
2021/04/15 04:13:55;;;;;;;10.90;7.95;;;2.60;64.90;;;;;;5105275;28;27399;-55
2021/04/15 04:17:02;;;;;;;11.43;7.18;;;2.60;64.90;;;;;;5103937;27;27324;-52
2021/04/15 04:19:55;;;;;;;11.27;7.57;;;2.60;64.90;;;;;;5103189;28;27621;-55
2021/04/15 04:22:50;;;;;;;10.57;8.05;;;2.60;64.90;;;;;;5104987;28;27393;-53
2021/04/15 04:25:45;;;;;;;11.25;7.80;;;2.50;64.80;;;;;;5104945;28;27383;-50
2021/04/15 04:29:04;;;;;;;13.13;9.07;;;2.50;64.90;;;;;;5100992;28;27442;-54
2021/04/15 04:32:42;;;;;;;10.48;8.02;;;2.50;64.90;;;;;;5103874;27;27833;-55
2021/04/15 04:35:57;;;;;;;11.75;8.00;;;2.50;65.00;;;;;;5104196;28;27427;-54
2021/04/15 04:39:24;;;;;;;12.27;8.55;;;2.50;65.00;;;;;;5103944;28;27548;-53
2021/04/15 04:42:21;;;;;;;11.32;7.82;;;2.50;64.80;;;;;;5104490;28;27362;-54
2021/04/15 04:45:26;;;;;;;16.20;8.52;;;2.50;65.00;;;;;;5104636;28;27375;-55
2021/04/15 04:48:44;;;;;;;10.20;7.88;;;2.40;64.90;;;;;;5104649;28;27381;-54
2021/04/15 04:52:03;;;;;;;13.15;8.07;;;2.40;65.00;;;;;;5103661;28;27518;-52
2021/04/15 04:55:12;;;;;;;13.80;8.73;;;2.40;65.00;;;;;;5103251;28;26981;-54
2021/04/15 04:58:40;;;;;;;12.65;8.43;;;2.40;65.20;;;;;;5104357;28;27349;-55
2021/04/15 05:02:03;;;;;;;13.75;7.80;;;2.50;65.30;;;;;;5104005;28;27403;-54
2021/04/15 05:05:17;;;;;;;10.15;7.72;;;2.50;65.30;;;;;;5100418;28;27399;-52
2021/04/15 05:08:10;;;;;;;12.88;8.50;;;2.50;65.30;;;;;;5102991;28;27371;-55
2021/04/15 05:11:25;;;;;;;11.75;7.90;;;2.50;65.40;;;;;;5100769;28;27932;-54
2021/04/15 05:14:39;;;;;;;11.50;8.10;;;2.50;65.40;;;;;;5104135;28;27355;-54
2021/04/15 05:17:29;;;;;;;11.05;7.88;;;2.50;65.70;;;;;;5103726;28;27576;-52
2021/04/15 05:20:17;;;;;;;12.10;8.00;;;2.50;65.80;;;;;;5103342;28;27462;-55
2021/04/15 05:23:11;;;;;;;16.38;8.60;;;2.50;65.80;;;;;;5102704;28;27469;-51
2021/04/15 05:26:24;;;;;;;13.35;9.13;;;2.50;66.00;;;;;;5104103;28;27423;-53
2021/04/15 05:30:20;;;;;;;12.13;8.48;;;2.40;66.00;;;;;;5103436;28;27341;-52
2021/04/15 05:33:23;;;;;;;14.07;8.80;;;2.40;66.10;;;;;;5102894;28;27476;-53
2021/04/15 05:36:38;;;;;;;14.23;9.10;;;2.50;66.30;;;;;;5103714;28;27936;-53
2021/04/15 05:39:32;;;;;;;19.95;11.02;;;2.50;66.40;;;;;;5102423;28;27599;-55
2021/04/15 05:42:24;;;;;;;16.58;10.55;;;2.50;66.50;;;;;;5103018;28;27355;-53
2021/04/15 05:45:29;;;;;;;15.73;10.40;;;2.50;66.40;;;;;;5104809;28;27387;-55
2021/04/15 05:48:24;;;;;;;19.65;10.27;;;2.50;66.40;;;;;;5088239;28;27352;-57
2021/04/15 05:51:51;;;;;;;15.88;10.45;;;2.60;66.60;;;;;;5103955;28;27336;-56
2021/04/15 05:55:16;;;;;;;15.80;9.85;;;2.60;66.70;;;;;;5103875;28;27343;-55
2021/04/15 05:58:44;;;;;;;14.60;10.25;;;2.60;66.70;;;;;;5103925;28;27325;-55
2021/04/15 06:02:14;;;;;;;16.55;11.35;;;2.70;66.90;;;;;;5104758;28;27476;-53
2021/04/15 06:05:33;;;;;;;15.30;10.48;;;2.80;66.90;;;;;;5102490;27;27336;-55
2021/04/15 06:08:48;;;;;;;14.95;10.43;;;3.00;67.10;;;;;;5103858;28;27439;-54
2021/04/15 06:11:43;;;;;;;13.23;9.93;;;3.10;67.20;;;;;;5101498;28;27411;-53
2021/04/15 06:14:53;;;;;;;14.55;10.60;;;3.20;67.20;;;;;;5104388;28;27524;-52
2021/04/15 06:18:40;;;;;;;17.58;11.32;;;3.30;67.30;;;;;;5104115;28;27501;-53
2021/04/15 06:22:11;;;;;;;22.83;11.32;;;3.50;67.50;;;;;;5102679;27;27380;-56
2021/04/15 06:25:23;;;;;;;16.85;11.65;;;3.60;67.40;;;;;;5103623;28;27427;-56
2021/04/15 06:28:51;;;;;;;19.90;12.48;;;3.70;67.60;;;;;;5104002;28;27471;-55
2021/04/15 06:32:01;;;;;;;18.13;11.68;;;3.80;67.60;;;;;;5100950;28;27419;-55
2021/04/15 06:35:15;;;;;;;15.90;11.05;;;4.00;67.60;;;;;;5103488;28;27355;-56
2021/04/15 06:38:28;;;;;;;18.70;11.45;;;4.20;67.60;;;;;;5103953;28;27331;-55
2021/04/15 06:41:22;;;;;;;17.23;12.73;;;4.30;67.60;;;;;;5107548;28;27343;-56
2021/04/15 06:45:02;;;;;;;16.15;12.13;;;4.60;67.40;;;;;;5104345;28;27478;-56
2021/04/15 06:48:16;;;;;;;17.65;11.40;;;5.10;66.00;;;;;;5106940;28;26978;-57
2021/04/15 06:51:39;;;;;;;18.50;12.32;;;5.60;65.00;;;;;;5106998;28;27338;-57
2021/04/15 06:54:50;;;;;;;17.75;12.02;;;6.00;63.80;;;;;;5107680;28;27473;-57
2021/04/15 06:58:22;;;;;;;18.52;11.60;;;6.50;61.60;;;;;;5106957;28;27558;-58
2021/04/15 07:01:50;;;;;;;17.55;10.88;;;6.90;61.80;;;;;;5107441;28;27409;-58
2021/04/15 07:04:51;;;;;;;17.70;12.02;;;7.30;60.90;;;;;;5107756;28;27389;-57
2021/04/15 07:07:59;;;;;;;14.65;10.65;;;7.60;59.30;;;;;;5103609;28;27322;-58
2021/04/15 07:11:19;;;;;;;15.55;12.05;;;7.90;58.80;;;;;;5106146;28;27457;-58
2021/04/15 07:14:54;;;;;;;16.58;11.60;;;8.20;58.60;;;;;;5107253;28;27469;-57
2021/04/15 07:18:05;;;;;;;14.50;10.68;;;8.60;58.70;;;;;;5107281;28;27406;-58
2021/04/15 07:21:13;;;;;;;17.40;12.15;;;8.80;58.60;;;;;;5106073;28;27414;-58
2021/04/15 07:24:48;;;;;;;16.05;10.80;;;9.20;57.80;;;;;;5102970;28;27419;-59
2021/04/15 07:28:12;;;;;;;13.95;10.10;;;9.50;57.70;;;;;;5107047;28;27316;-59
2021/04/15 07:31:37;;;;;;;14.30;10.05;;;9.80;56.90;;;;;;5107384;28;27380;-56
2021/04/15 07:35:26;;;;;;;16.63;10.63;;;10.10;56.70;;;;;;5106521;28;27403;-59
2021/04/15 07:38:22;;;;;;;13.40;9.07;;;10.30;55.80;;;;;;5105847;28;27385;-58
2021/04/15 07:41:27;;;;;;;11.52;9.45;;;10.60;55.00;;;;;;5106079;28;27387;-59
2021/04/15 07:44:27;;;;;;;15.90;8.75;;;10.70;55.20;;;;;;5106764;28;27330;-58
2021/04/15 07:47:43;;;;;;;16.27;8.95;;;11.00;54.70;;;;;;5106571;28;27887;-60
2021/04/15 07:51:00;;;;;;;11.73;8.52;;;11.30;55.20;;;;;;5106045;27;27404;-59
2021/04/15 07:54:01;;;;;;;11.88;8.63;;;11.50;54.20;;;;;;5106650;28;27377;-59
2021/04/15 07:57:27;;;;;;;11.18;8.80;;;11.40;54.10;;;;;;5106371;28;27430;-59
2021/04/15 08:00:22;;;;;;;10.85;8.10;;;11.00;53.70;;;;;;5102386;28;27427;-59
2021/04/15 08:03:42;;;;;;;9.98;7.15;;;10.80;54.40;;;;;;5106700;28;27411;-59
2021/04/15 08:07:29;;;;;;;11.00;7.80;;;11.10;55.40;;;;;;5102862;28;27363;-59
2021/04/15 08:11:09;;;;;;;12.18;8.75;;;11.50;54.90;;;;;;5091975;27;27362;-59
2021/04/15 08:14:13;;;;;;;11.27;8.10;;;11.90;55.20;;;;;;5106549;28;27373;-59
2021/04/15 08:17:23;;;;;;;8.55;6.95;;;12.30;53.00;;;;;;5102014;28;27415;-59
2021/04/15 08:20:33;;;;;;;13.32;8.20;;;12.50;54.00;;;;;;5105342;28;27580;-59
2021/04/15 08:23:53;;;;;;;15.63;9.90;;;13.00;53.20;;;;;;5106039;28;27375;-59
2021/04/15 08:27:33;;;;;;;14.30;8.45;;;13.40;51.80;;;;;;5102723;28;27328;-60
2021/04/15 08:31:17;;;;;;;11.10;6.20;;;13.70;49.90;;;;;;5102419;28;27608;-60
2021/04/15 08:34:33;;;;;;;9.40;6.70;;;14.00;50.10;;;;;;5105595;28;27164;-60
2021/04/15 08:38:12;;;;;;;13.57;6.93;;;14.20;50.50;;;;;;5105337;28;27493;-59
2021/04/15 08:41:41;;;;;;;11.40;7.15;;;14.40;50.20;;;;;;5104582;28;27418;-60
2021/04/15 08:45:06;;;;;;;8.82;5.45;;;14.30;51.00;;;;;;5105645;28;27431;-60
2021/04/15 08:48:31;;;;;;;5.95;4.03;;;14.10;51.80;;;;;;5101733;28;27423;-60
2021/04/15 08:51:40;;;;;;;6.47;4.10;;;14.20;52.40;;;;;;5105542;28;27457;-60
2021/04/15 08:55:24;;;;;;;5.97;4.43;;;14.60;51.10;;;;;;5105317;28;27363;-60
2021/04/15 08:58:27;;;;;;;7.90;3.22;;;14.90;48.40;;;;;;5104897;28;27406;-60
2021/04/15 09:01:54;;;;;;;4.65;3.17;;;15.20;49.10;;;;;;5105036;27;27458;-60
2021/04/15 09:05:20;;;;;;;5.40;2.97;;;15.50;49.20;;;;;;5104961;28;27577;-61
2021/04/15 09:08:45;;;;;;;4.13;2.55;;;15.90;49.60;;;;;;5104933;28;27956;-60
2021/04/15 09:11:42;;;;;;;4.32;2.60;;;16.30;49.70;;;;;;5105619;28;27416;-60
2021/04/15 09:14:56;;;;;;;5.80;2.95;;;16.60;47.60;;;;;;5105383;28;27287;-60
2021/04/15 09:18:21;;;;;;;2.40;2.20;;;16.30;45.20;;;;;;5105121;28;27344;-59
2021/04/15 09:21:37;;;;;;;6.45;3.00;;;15.80;47.50;;;;;;5103651;28;27370;-59
2021/04/15 09:24:43;;;;;;;5.53;2.55;;;15.40;48.00;;;;;;5103904;28;27448;-59
2021/04/15 09:27:58;;;;;;;4.78;2.58;;;15.00;47.90;;;;;;5105429;28;27434;-60
2021/04/15 09:31:02;;;;;;;4.38;2.65;;;14.50;47.00;;;;;;5104204;28;27636;-60
2021/04/15 09:34:10;;;;;;;2.47;2.10;;;14.10;49.70;;;;;;5104368;28;27351;-60
2021/04/15 09:37:37;;;;;;;3.45;1.85;;;13.50;51.40;;;;;;5104019;28;27529;-59
2021/04/15 09:40:50;;;;;;;6.95;1.98;;;13.10;51.90;;;;;;5104981;28;27462;-60
2021/04/15 09:43:46;;;;;;;4.22;2.58;;;12.60;50.90;;;;;;5101474;28;27403;-60
2021/04/15 09:47:11;;;;;;;7.57;2.58;;;12.30;52.20;;;;;;5101462;28;27382;-59
2021/04/15 09:50:22;;;;;;;3.28;1.92;;;12.00;50.90;;;;;;5104637;28;27510;-60
2021/04/15 09:53:37;;;;;;;4.82;2.40;;;12.00;51.40;;;;;;5104166;28;27395;-60
2021/04/15 09:56:45;;;;;;;3.72;2.13;;;11.90;50.50;;;;;;5104699;28;27371;-60
2021/04/15 09:59:51;;;;;;;3.95;2.38;;;11.70;51.20;;;;;;5104845;28;27817;-59
2021/04/15 10:03:04;;;;;;;5.55;2.22;;;11.60;51.60;;;;;;5104579;28;27562;-59
2021/04/15 10:06:21;;;;;;;2.55;2.10;;;11.40;52.60;;;;;;5101355;28;27373;-59
2021/04/15 10:09:17;;;;;;;5.30;2.08;;;11.30;53.30;;;;;;5104678;28;27407;-59
2021/04/15 10:12:11;;;;;;;4.93;2.70;;;11.70;53.20;;;;;;5104420;28;27410;-59
2021/04/15 10:15:34;;;;;;;4.70;2.47;;;12.10;52.60;;;;;;5104318;28;27478;-60
2021/04/15 10:19:05;;;;;;;2.67;1.60;;;12.70;54.10;;;;;;5104241;28;27497;-59
2021/04/15 10:21:58;;;;;;;6.88;2.30;;;13.40;51.80;;;;;;5104681;28;27406;-59
2021/04/15 10:25:11;;;;;;;5.40;2.13;;;13.60;52.60;;;;;;5104619;28;27356;-60
2021/04/15 10:28:04;;;;;;;5.75;2.28;;;13.80;51.90;;;;;;5104228;28;27458;-59
2021/04/15 10:32:01;;;;;;;2.85;1.90;;;13.80;52.00;;;;;;5104293;28;27340;-59
2021/04/15 10:35:27;;;;;;;3.08;1.75;;;13.70;51.20;;;;;;5104100;28;27410;-59
2021/04/15 10:38:42;;;;;;;3.20;1.67;;;13.60;49.60;;;;;;5103963;28;27390;-60
2021/04/15 10:42:06;;;;;;;3.55;2.05;;;13.40;49.10;;;;;;5104043;28;27450;-59
2021/04/15 10:45:10;;;;;;;4.47;1.95;;;13.30;49.40;;;;;;5100745;28;27365;-59
2021/04/15 10:48:47;;;;;;;3.38;2.00;;;13.10;50.60;;;;;;5103505;28;27409;-60
2021/04/15 10:51:59;;;;;;;2.85;2.08;;;13.00;50.40;;;;;;5104193;28;27434;-59
2021/04/15 10:55:14;;;;;;;2.40;1.58;;;12.90;50.80;;;;;;5104176;28;27488;-59
2021/04/15 10:58:48;;;;;;;3.70;1.88;;;12.90;50.80;;;;;;5099877;28;27337;-59
2021/04/15 11:02:16;;;;;;;4.50;1.95;;;12.90;51.70;;;;;;5103662;28;27431;-59
2021/04/15 11:06:03;;;;;;;4.45;1.90;;;12.80;52.60;;;;;;5103818;28;27490;-59
2021/04/15 11:09:14;;;;;;;3.22;1.85;;;12.80;50.50;;;;;;5100556;28;27478;-59
2021/04/15 11:12:25;;;;;;;2.45;1.52;;;12.80;50.00;;;;;;5103854;28;27484;-59
2021/04/15 11:15:38;;;;;;;3.80;2.10;;;12.70;49.70;;;;;;5103619;28;27400;-59
2021/04/15 11:18:54;;;;;;;2.17;1.50;;;12.70;49.00;;;;;;5100831;28;27895;-59
2021/04/15 11:22:32;;;;;;;5.07;2.05;;;12.60;48.20;;;;;;5103931;28;27490;-59
2021/04/15 11:25:47;;;;;;;3.38;1.45;;;12.60;47.70;;;;;;5103597;27;27340;-58
2021/04/15 11:28:55;;;;;;;3.78;1.60;;;12.50;47.70;;;;;;5106490;28;27430;-59
2021/04/15 11:32:23;;;;;;;1.63;1.30;;;12.60;49.20;;;;;;5103670;28;27440;-59
2021/04/15 11:36:08;;;;;;;1.60;1.10;;;12.70;50.00;;;;;;5106898;28;27418;-59
2021/04/15 11:39:54;;;;;;;3.58;1.40;;;12.90;48.90;;;;;;5106978;28;27471;-59
2021/04/15 11:43:20;;;;;;;5.47;1.48;;;13.00;48.80;;;;;;5106974;28;27452;-61
2021/04/15 11:47:10;;;;;;;4.13;1.50;;;13.30;52.00;;;;;;5106471;28;27333;-62
2021/04/15 11:50:15;;;;;;;2.67;1.17;;;13.90;51.70;;;;;;5106990;28;27428;-61
2021/04/15 11:53:53;;;;;;;2.45;1.42;;;14.30;52.30;;;;;;5105986;28;27580;-62
2021/04/15 11:57:26;;;;;;;4.95;2.83;;;14.70;51.70;;;;;;5106565;28;27407;-62
2021/04/15 12:00:35;;;;;;;1.98;1.75;;;14.80;49.20;;;;;;5104943;28;27574;-62
2021/04/15 12:04:05;;;;;;;2.95;1.38;;;14.90;50.40;;;;;;5106619;28;27371;-62
2021/04/15 12:07:19;;;;;;;3.63;1.70;;;14.80;51.30;;;;;;5106230;28;27466;-61
2021/04/15 12:10:27;;;;;;;1.42;1.30;;;14.90;50.80;;;;;;5105951;28;27506;-62
2021/04/15 12:13:40;;;;;;;5.43;1.20;;;15.00;51.40;;;;;;5091060;28;27484;-61
2021/04/15 12:17:13;;;;;;;1.85;0.93;;;15.10;49.20;;;;;;5105444;28;27473;-62
2021/04/15 12:20:09;;;;;;;2.33;1.40;;;15.10;49.10;;;;;;5104935;28;27421;-61
2021/04/15 12:23:38;;;;;;;3.15;1.50;;;15.00;48.30;;;;;;5102375;28;27405;-62
2021/04/15 12:26:51;;;;;;;2.10;1.40;;;14.90;50.30;;;;;;5106251;28;27455;-61
2021/04/15 12:29:47;;;;;;;4.63;2.08;;;14.90;47.30;;;;;;5105808;28;27481;-62
2021/04/15 12:32:36;;;;;;;2.60;1.70;;;14.80;47.00;;;;;;5105986;28;27482;-61
2021/04/15 12:35:44;;;;;;;2.25;1.35;;;14.60;48.90;;;;;;5105587;28;27328;-61
2021/04/15 12:38:57;;;;;;;4.40;2.17;;;14.60;48.90;;;;;;5105661;28;27480;-61
2021/04/15 12:41:59;;;;;;;2.22;1.73;;;14.60;49.60;;;;;;5105415;28;27334;-62
2021/04/15 12:45:05;;;;;;;1.85;1.10;;;14.80;48.00;;;;;;5105054;28;27356;-62
2021/04/15 12:48:29;;;;;;;2.45;1.80;;;14.90;51.40;;;;;;5090669;28;27723;-61
2021/04/15 12:51:43;;;;;;;3.88;2.15;;;14.80;51.10;;;;;;5105609;28;27352;-61
2021/04/15 12:54:59;;;;;;;3.17;2.42;;;14.70;49.90;;;;;;5103590;28;27477;-61
2021/04/15 12:58:05;;;;;;;4.35;1.67;;;14.50;50.70;;;;;;5105786;28;27355;-61
2021/04/15 13:01:10;;;;;;;3.67;2.05;;;14.20;50.00;;;;;;5104591;28;27332;-63
2021/04/15 13:04:18;;;;;;;2.05;1.60;;;14.10;52.00;;;;;;5104785;28;27366;-63
2021/04/15 13:07:07;;;;;;;2.63;1.88;;;14.00;52.50;;;;;;5102145;28;27430;-61
2021/04/15 13:10:12;;;;;;;2.13;1.60;;;14.00;51.00;;;;;;5105050;28;27410;-61
2021/04/15 13:13:41;;;;;;;1.67;1.13;;;13.80;50.20;;;;;;5105401;28;27459;-61
2021/04/15 13:16:42;;;;;;;3.30;1.73;;;13.70;50.90;;;;;;5105042;28;27340;-62
2021/04/15 13:20:18;;;;;;;3.53;1.35;;;13.70;49.50;;;;;;5104412;28;27400;-61
2021/04/15 13:23:52;;;;;;;3.47;1.60;;;13.50;48.60;;;;;;5105209;28;27407;-61
2021/04/15 13:27:18;;;;;;;3.70;1.42;;;13.40;46.50;;;;;;5103817;28;27497;-61
2021/04/15 13:30:20;;;;;;;1.33;1.20;;;13.20;47.80;;;;;;5102271;28;27499;-61
2021/04/15 13:33:38;;;;;;;3.50;1.90;;;13.10;49.90;;;;;;5104767;28;27505;-61
2021/04/15 13:37:20;;;;;;;2.03;1.40;;;13.00;48.30;;;;;;5105044;28;27555;-61
2021/04/15 13:40:43;;;;;;;3.15;1.45;;;12.90;49.50;;;;;;5100830;28;27406;-61
2021/04/15 13:43:46;;;;;;;2.30;1.58;;;13.00;53.70;;;;;;5104807;28;27922;-60
2021/04/15 13:46:45;;;;;;;2.20;1.55;;;13.10;52.60;;;;;;5105155;28;27386;-61
2021/04/15 13:49:56;;;;;;;2.63;1.58;;;13.10;51.80;;;;;;5103384;27;27419;-61
2021/04/15 13:53:00;;;;;;;2.25;1.70;;;13.00;53.30;;;;;;5105021;28;27378;-62
2021/04/15 13:55:48;;;;;;;2.42;1.67;;;13.00;50.50;;;;;;5104258;28;27316;-61
2021/04/15 13:58:53;;;;;;;4.20;1.23;;;13.00;49.20;;;;;;5103859;28;27415;-61
2021/04/15 14:02:07;;;;;;;2.25;1.65;;;12.90;50.00;;;;;;5104974;28;27419;-61
2021/04/15 14:05:39;;;;;;;2.35;1.73;;;12.90;49.00;;;;;;5104235;28;27371;-61
2021/04/15 14:09:01;;;;;;;4.75;2.42;;;12.90;49.90;;;;;;5104281;28;27386;-60
2021/04/15 14:12:22;;;;;;;2.97;2.20;;;12.80;48.60;;;;;;5100484;28;27460;-61
2021/04/15 14:15:37;;;;;;;5.22;2.65;;;12.70;49.70;;;;;;5104885;28;27398;-61
2021/04/15 14:19:12;;;;;;;3.95;1.80;;;12.60;48.90;;;;;;5100882;28;27386;-61
2021/04/15 14:22:39;;;;;;;4.00;2.03;;;12.60;51.70;;;;;;5103467;28;27831;-61
2021/04/15 14:25:47;;;;;;;1.77;1.60;;;12.60;51.20;;;;;;5104384;28;27467;-61
2021/04/15 14:28:34;;;;;;;2.50;1.85;;;12.50;51.80;;;;;;5088450;28;27492;-61
2021/04/15 14:31:27;;;;;;;5.18;1.67;;;12.60;52.70;;;;;;5103483;28;27383;-61
2021/04/15 14:34:19;;;;;;;5.25;1.80;;;12.60;51.30;;;;;;5104407;28;27497;-62
2021/04/15 14:37:26;;;;;;;2.00;1.85;;;12.70;51.20;;;;;;5104325;28;27498;-61
2021/04/15 14:40:26;;;;;;;2.72;1.92;;;12.70;51.10;;;;;;5104208;28;27396;-61
2021/04/15 14:43:33;;;;;;;2.05;1.85;;;12.70;49.70;;;;;;5104011;28;27387;-61
2021/04/15 14:46:33;;;;;;;3.58;1.80;;;12.70;49.50;;;;;;5103868;28;27442;-60
2021/04/15 14:49:28;;;;;;;2.53;2.03;;;12.70;48.90;;;;;;5102014;28;27479;-61
2021/04/15 14:52:43;;;;;;;3.15;1.95;;;12.70;49.40;;;;;;5103994;28;27459;-61
2021/04/15 14:56:12;;;;;;;7.90;1.90;;;12.70;49.30;;;;;;5103743;28;27400;-61
2021/04/15 14:59:41;;;;;;;2.47;2.28;;;12.80;49.50;;;;;;5102789;27;27880;-61
2021/04/15 15:02:46;;;;;;;2.67;1.60;;;13.00;49.90;;;;;;5106893;28;27378;-61
2021/04/15 15:05:53;;;;;;;1.65;1.55;;;13.10;50.20;;;;;;5107650;28;27396;-61
2021/04/15 15:09:01;;;;;;;3.65;1.88;;;13.30;48.40;;;;;;5103334;28;27418;-61
2021/04/15 15:12:28;;;;;;;1.60;1.35;;;13.40;49.30;;;;;;5106395;28;27409;-61
2021/04/15 15:15:34;;;;;;;1.50;1.40;;;13.50;49.20;;;;;;5103998;28;27498;-61
2021/04/15 15:18:39;;;;;;;2.47;1.35;;;13.70;49.10;;;;;;5106018;28;26995;-61
2021/04/15 15:21:28;;;;;;;1.65;0.98;;;13.80;48.50;;;;;;5105118;28;27407;-63
2021/04/15 15:24:22;;;;;;;3.00;1.77;;;14.00;48.40;;;;;;5107416;28;27395;-60
2021/04/15 15:27:16;;;;;;;2.95;1.65;;;14.10;48.30;;;;;;5103805;28;27437;-61
2021/04/15 15:30:12;;;;;;;2.45;1.70;;;14.10;46.30;;;;;;5103263;28;27434;-61
2021/04/15 15:33:51;;;;;;;2.40;1.90;;;14.10;48.40;;;;;;5103440;28;27398;-61
2021/04/15 15:37:18;;;;;;;3.13;1.60;;;14.00;48.30;;;;;;5107115;28;27355;-61
2021/04/15 15:41:09;;;;;;;3.20;2.08;;;13.90;48.70;;;;;;5106837;28;27348;-60
2021/04/15 15:44:11;;;;;;;3.58;1.60;;;13.70;48.00;;;;;;5103198;28;27404;-61
2021/04/15 15:47:39;;;;;;;3.42;1.77;;;13.40;49.50;;;;;;5104812;28;27519;-61
2021/04/15 15:51:09;;;;;;;2.10;1.90;;;13.20;50.80;;;;;;5105295;28;27396;-61
2021/04/15 15:53:54;;;;;;;4.20;2.10;;;13.10;50.00;;;;;;5104875;28;27558;-61
2021/04/15 15:57:09;;;;;;;2.83;1.92;;;13.10;50.20;;;;;;5101984;28;27525;-61
2021/04/15 15:59:53;;;;;;;4.68;2.22;;;13.00;50.30;;;;;;5104992;28;27462;-61
2021/04/15 16:03:03;;;;;;;2.58;1.77;;;13.00;50.20;;;;;;5105209;28;27506;-61
2021/04/15 16:06:15;;;;;;;3.45;1.80;;;13.00;50.30;;;;;;5101719;28;27471;-61
2021/04/15 16:09:29;;;;;;;5.40;1.55;;;12.90;50.50;;;;;;5104753;28;27521;-61
2021/04/15 16:12:43;;;;;;;2.65;1.73;;;13.00;51.30;;;;;;5103582;27;27517;-62
2021/04/15 16:15:39;;;;;;;2.22;1.83;;;13.00;51.10;;;;;;5102217;28;27919;-60
2021/04/15 16:18:54;;;;;;;5.05;1.50;;;12.90;49.90;;;;;;5106046;28;27446;-61
2021/04/15 16:22:00;;;;;;;3.13;1.80;;;12.90;50.40;;;;;;5106583;28;27472;-61
2021/04/15 16:25:16;;;;;;;5.97;1.80;;;12.80;49.50;;;;;;5106091;28;27316;-61
2021/04/15 16:28:33;;;;;;;2.63;1.55;;;12.70;50.00;;;;;;5105974;27;27442;-60
2021/04/15 16:31:48;;;;;;;3.85;2.17;;;12.50;50.80;;;;;;5106033;28;27405;-61
2021/04/15 16:34:39;;;;;;;3.65;2.45;;;12.40;49.80;;;;;;5105805;28;27456;-61
2021/04/15 16:37:49;;;;;;;3.47;2.03;;;12.30;50.00;;;;;;5102013;28;27462;-61
2021/04/15 16:41:09;;;;;;;3.10;2.05;;;12.10;50.30;;;;;;5104920;28;27833;-61
2021/04/15 16:44:24;;;;;;;4.10;3.15;;;12.00;50.20;;;;;;5105972;28;27481;-61
2021/04/15 16:47:49;;;;;;;2.72;2.13;;;11.80;49.90;;;;;;5102908;28;27403;-61
2021/04/15 16:50:55;;;;;;;3.22;2.53;;;11.70;50.80;;;;;;5105817;28;27481;-61
2021/04/15 16:54:08;;;;;;;3.85;1.98;;;11.60;50.90;;;;;;5105619;28;27509;-60